sensor_id;sensor_type;location;lat;lon;timestamp;temperature;humidity
262;DHT22;114;48.260;10.988;2024-01-30T00:00:25;-1.40;1.00
262;DHT22;114;48.260;10.988;2024-01-30T00:02:55;-1.90;1.00
262;DHT22;114;48.260;10.988;2024-01-30T00:05:20;-1.40;1.00
262;DHT22;114;48.260;10.988;2024-01-30T00:07:46;-1.80;1.00
262;DHT22;114;48.260;10.988;2024-01-30T00:10:11;-1.40;1.00
262;DHT22;114;48.260;10.988;2024-01-30T00:12:37;-1.80;1.00
262;DHT22;114;48.260;10.988;2024-01-30T00:15:04;-1.40;1.00
262;DHT22;114;48.260;10.988;2024-01-30T00:17:30;-1.30;1.00
262;DHT22;114;48.260;10.988;2024-01-30T00:19:56;-1.30;1.00
262;DHT22;114;48.260;10.988;2024-01-30T00:22:22;-1.60;1.00
262;DHT22;114;48.260;10.988;2024-01-30T00:24:47;-1.30;1.00
262;DHT22;114;48.260;10.988;2024-01-30T00:27:13;-1.30;1.00
262;DHT22;114;48.260;10.988;2024-01-30T00:29:38;-1.30;1.00
262;DHT22;114;48.260;10.988;2024-01-30T00:32:05;-1.20;1.00
262;DHT22;114;48.260;10.988;2024-01-30T00:34:31;-1.30;1.00
262;DHT22;114;48.260;10.988;2024-01-30T00:36:58;-1.40;1.00
262;DHT22;114;48.260;10.988;2024-01-30T00:39:23;-1.40;1.00
262;DHT22;114;48.260;10.988;2024-01-30T00:41:49;-1.70;1.00
262;DHT22;114;48.260;10.988;2024-01-30T00:44:15;-1.30;1.00
262;DHT22;114;48.260;10.988;2024-01-30T00:46:40;-1.30;1.00
262;DHT22;114;48.260;10.988;2024-01-30T00:49:06;-1.30;1.00
262;DHT22;114;48.260;10.988;2024-01-30T00:51:31;-1.80;1.00
262;DHT22;114;48.260;10.988;2024-01-30T00:53:57;-1.30;1.00
262;DHT22;114;48.260;10.988;2024-01-30T00:56:24;-1.40;1.00
262;DHT22;114;48.260;10.988;2024-01-30T00:58:49;-1.50;1.00
262;DHT22;114;48.260;10.988;2024-01-30T01:01:15;-1.50;1.00
262;DHT22;114;48.260;10.988;2024-01-30T01:03:41;-2.00;1.00
262;DHT22;114;48.260;10.988;2024-01-30T01:06:09;-1.40;1.00
262;DHT22;114;48.260;10.988;2024-01-30T01:08:35;-1.80;1.00
262;DHT22;114;48.260;10.988;2024-01-30T01:11:00;-1.90;1.00
262;DHT22;114;48.260;10.988;2024-01-30T01:13:26;-1.50;1.00
262;DHT22;114;48.260;10.988;2024-01-30T01:15:52;-1.50;1.00
262;DHT22;114;48.260;10.988;2024-01-30T01:18:17;-1.50;1.00
262;DHT22;114;48.260;10.988;2024-01-30T01:20:43;-2.00;1.00
262;DHT22;114;48.260;10.988;2024-01-30T01:23:08;-1.90;1.00
262;DHT22;114;48.260;10.988;2024-01-30T01:25:34;-2.00;1.00
262;DHT22;114;48.260;10.988;2024-01-30T01:28:00;-1.70;1.00
262;DHT22;114;48.260;10.988;2024-01-30T01:30:28;-2.10;1.00
262;DHT22;114;48.260;10.988;2024-01-30T01:32:56;-1.70;1.00
262;DHT22;114;48.260;10.988;2024-01-30T01:35:25;-1.60;1.00
262;DHT22;114;48.260;10.988;2024-01-30T01:37:52;-1.80;1.00
262;DHT22;114;48.260;10.988;2024-01-30T01:40:24;-1.60;1.00
262;DHT22;114;48.260;10.988;2024-01-30T01:42:50;-1.70;1.00
262;DHT22;114;48.260;10.988;2024-01-30T01:45:19;-1.70;1.00
262;DHT22;114;48.260;10.988;2024-01-30T01:47:52;-2.10;1.00
262;DHT22;114;48.260;10.988;2024-01-30T01:50:18;-1.60;1.00
262;DHT22;114;48.260;10.988;2024-01-30T01:52:50;-1.80;1.00
262;DHT22;114;48.260;10.988;2024-01-30T01:55:17;-1.80;1.00
262;DHT22;114;48.260;10.988;2024-01-30T01:57:44;-1.80;1.00
262;DHT22;114;48.260;10.988;2024-01-30T02:00:10;-2.10;1.00
262;DHT22;114;48.260;10.988;2024-01-30T02:02:37;-1.90;1.00
262;DHT22;114;48.260;10.988;2024-01-30T02:05:04;-1.80;1.00
262;DHT22;114;48.260;10.988;2024-01-30T02:07:30;-1.90;1.00
262;DHT22;114;48.260;10.988;2024-01-30T02:09:56;-1.70;1.00
262;DHT22;114;48.260;10.988;2024-01-30T02:12:22;-1.80;1.00
262;DHT22;114;48.260;10.988;2024-01-30T02:14:48;-1.90;1.00
262;DHT22;114;48.260;10.988;2024-01-30T02:17:16;-1.90;1.00
262;DHT22;114;48.260;10.988;2024-01-30T02:19:42;-2.30;1.00
262;DHT22;114;48.260;10.988;2024-01-30T02:22:08;-2.30;1.00
262;DHT22;114;48.260;10.988;2024-01-30T02:24:34;-2.00;1.00
262;DHT22;114;48.260;10.988;2024-01-30T02:27:00;-2.40;1.00
262;DHT22;114;48.260;10.988;2024-01-30T02:29:26;-1.90;1.00
262;DHT22;114;48.260;10.988;2024-01-30T02:31:52;-2.30;1.00
262;DHT22;114;48.260;10.988;2024-01-30T02:34:19;-2.20;1.00
262;DHT22;114;48.260;10.988;2024-01-30T02:36:45;-1.80;1.00
262;DHT22;114;48.260;10.988;2024-01-30T02:39:11;-1.80;1.00
262;DHT22;114;48.260;10.988;2024-01-30T02:41:36;-2.30;1.00
262;DHT22;114;48.260;10.988;2024-01-30T02:44:05;-2.50;1.00
262;DHT22;114;48.260;10.988;2024-01-30T02:46:31;-1.90;1.00
262;DHT22;114;48.260;10.988;2024-01-30T02:48:58;-1.80;1.00
262;DHT22;114;48.260;10.988;2024-01-30T02:51:23;-1.80;1.00
262;DHT22;114;48.260;10.988;2024-01-30T02:53:49;-2.40;1.00
262;DHT22;114;48.260;10.988;2024-01-30T02:56:15;-1.90;1.00
262;DHT22;114;48.260;10.988;2024-01-30T02:58:41;-1.90;1.00
262;DHT22;114;48.260;10.988;2024-01-30T03:01:07;-1.90;1.00
262;DHT22;114;48.260;10.988;2024-01-30T03:03:32;-1.90;1.00
262;DHT22;114;48.260;10.988;2024-01-30T03:06:00;-1.90;1.00
262;DHT22;114;48.260;10.988;2024-01-30T03:08:27;-1.90;1.00
262;DHT22;114;48.260;10.988;2024-01-30T03:10:53;-1.90;1.00
262;DHT22;114;48.260;10.988;2024-01-30T03:13:19;-2.20;1.00
262;DHT22;114;48.260;10.988;2024-01-30T03:15:44;-1.60;1.00
262;DHT22;114;48.260;10.988;2024-01-30T03:18:10;-2.10;1.00
262;DHT22;114;48.260;10.988;2024-01-30T03:20:36;-1.90;1.00
262;DHT22;114;48.260;10.988;2024-01-30T03:23:01;-2.20;1.00
262;DHT22;114;48.260;10.988;2024-01-30T03:25:28;-1.80;1.00
262;DHT22;114;48.260;10.988;2024-01-30T03:27:53;-2.30;1.00
262;DHT22;114;48.260;10.988;2024-01-30T03:30:19;-2.10;1.00
262;DHT22;114;48.260;10.988;2024-01-30T03:32:45;-2.00;1.00
262;DHT22;114;48.260;10.988;2024-01-30T03:35:10;-2.60;1.00
262;DHT22;114;48.260;10.988;2024-01-30T03:37:36;-2.20;1.00
262;DHT22;114;48.260;10.988;2024-01-30T03:40:03;-2.40;1.00
262;DHT22;114;48.260;10.988;2024-01-30T03:42:29;-2.20;1.00
262;DHT22;114;48.260;10.988;2024-01-30T03:44:54;-2.30;1.00
262;DHT22;114;48.260;10.988;2024-01-30T03:47:21;-2.70;1.00
262;DHT22;114;48.260;10.988;2024-01-30T03:49:47;-2.50;1.00
262;DHT22;114;48.260;10.988;2024-01-30T03:52:12;-2.00;1.00
262;DHT22;114;48.260;10.988;2024-01-30T03:54:38;-2.30;1.00
262;DHT22;114;48.260;10.988;2024-01-30T03:57:04;-2.80;1.00
262;DHT22;114;48.260;10.988;2024-01-30T03:59:31;-2.20;1.00
262;DHT22;114;48.260;10.988;2024-01-30T04:01:56;-2.60;1.00
262;DHT22;114;48.260;10.988;2024-01-30T04:04:22;-2.20;1.00
262;DHT22;114;48.260;10.988;2024-01-30T04:06:48;-2.40;1.00
262;DHT22;114;48.260;10.988;2024-01-30T04:09:14;-2.50;1.00
262;DHT22;114;48.260;10.988;2024-01-30T04:11:41;-2.10;1.00
262;DHT22;114;48.260;10.988;2024-01-30T04:14:08;-2.10;1.00
262;DHT22;114;48.260;10.988;2024-01-30T04:16:34;-2.50;1.00
262;DHT22;114;48.260;10.988;2024-01-30T04:18:59;-2.10;1.00
262;DHT22;114;48.260;10.988;2024-01-30T04:21:25;-2.00;1.00
262;DHT22;114;48.260;10.988;2024-01-30T04:23:51;-2.00;1.00
262;DHT22;114;48.260;10.988;2024-01-30T04:26:17;-2.00;1.00
262;DHT22;114;48.260;10.988;2024-01-30T04:28:44;-2.00;1.00
262;DHT22;114;48.260;10.988;2024-01-30T04:31:10;-2.30;1.00
262;DHT22;114;48.260;10.988;2024-01-30T04:33:36;-2.00;1.00
262;DHT22;114;48.260;10.988;2024-01-30T04:36:02;-2.00;1.00
262;DHT22;114;48.260;10.988;2024-01-30T04:38:28;-1.70;1.00
262;DHT22;114;48.260;10.988;2024-01-30T04:40:54;-2.10;1.00
262;DHT22;114;48.260;10.988;2024-01-30T04:43:19;-2.00;1.00
262;DHT22;114;48.260;10.988;2024-01-30T04:45:46;-2.10;1.00
262;DHT22;114;48.260;10.988;2024-01-30T04:48:12;-2.20;1.00
262;DHT22;114;48.260;10.988;2024-01-30T04:50:38;-2.50;1.00
262;DHT22;114;48.260;10.988;2024-01-30T04:53:09;-2.50;1.00
262;DHT22;114;48.260;10.988;2024-01-30T04:55:36;-2.30;1.00
262;DHT22;114;48.260;10.988;2024-01-30T04:58:02;-2.40;1.00
262;DHT22;114;48.260;10.988;2024-01-30T05:00:30;-2.10;1.00
262;DHT22;114;48.260;10.988;2024-01-30T05:02:56;-2.50;1.00
262;DHT22;114;48.260;10.988;2024-01-30T05:05:33;-2.00;1.00
262;DHT22;114;48.260;10.988;2024-01-30T05:07:59;-2.30;1.00
262;DHT22;114;48.260;10.988;2024-01-30T05:10:25;-1.50;1.00
262;DHT22;114;48.260;10.988;2024-01-30T05:12:50;-1.50;1.00
262;DHT22;114;48.260;10.988;2024-01-30T05:15:16;-1.90;1.00
262;DHT22;114;48.260;10.988;2024-01-30T05:17:42;-2.00;1.00
262;DHT22;114;48.260;10.988;2024-01-30T05:20:08;-1.80;1.00
262;DHT22;114;48.260;10.988;2024-01-30T05:22:37;-1.90;1.00
262;DHT22;114;48.260;10.988;2024-01-30T05:25:03;-1.80;1.00
262;DHT22;114;48.260;10.988;2024-01-30T05:27:31;-1.80;1.00
262;DHT22;114;48.260;10.988;2024-01-30T05:29:57;-1.70;1.00
262;DHT22;114;48.260;10.988;2024-01-30T05:32:22;-2.20;1.00
262;DHT22;114;48.260;10.988;2024-01-30T05:34:48;-2.00;1.00
262;DHT22;114;48.260;10.988;2024-01-30T05:37:17;-1.80;1.00
262;DHT22;114;48.260;10.988;2024-01-30T05:39:43;-1.80;1.00
262;DHT22;114;48.260;10.988;2024-01-30T05:42:09;-2.30;1.00
262;DHT22;114;48.260;10.988;2024-01-30T05:44:35;-2.10;1.00
262;DHT22;114;48.260;10.988;2024-01-30T05:47:01;-2.10;1.00
262;DHT22;114;48.260;10.988;2024-01-30T05:49:26;-2.50;1.00
262;DHT22;114;48.260;10.988;2024-01-30T05:51:52;-2.10;1.00
262;DHT22;114;48.260;10.988;2024-01-30T05:54:17;-2.00;1.00
262;DHT22;114;48.260;10.988;2024-01-30T05:56:43;-2.50;1.00
262;DHT22;114;48.260;10.988;2024-01-30T05:59:09;-2.00;1.00
262;DHT22;114;48.260;10.988;2024-01-30T06:01:34;-2.40;1.00
262;DHT22;114;48.260;10.988;2024-01-30T06:04:01;-1.90;1.00
262;DHT22;114;48.260;10.988;2024-01-30T06:06:27;-1.90;1.00
262;DHT22;114;48.260;10.988;2024-01-30T06:08:52;-1.90;1.00
262;DHT22;114;48.260;10.988;2024-01-30T06:11:20;-2.20;1.00
262;DHT22;114;48.260;10.988;2024-01-30T06:13:46;-2.30;1.00
262;DHT22;114;48.260;10.988;2024-01-30T06:16:12;-1.80;1.00
262;DHT22;114;48.260;10.988;2024-01-30T06:18:38;-1.70;1.00
262;DHT22;114;48.260;10.988;2024-01-30T06:21:04;-1.80;1.00
262;DHT22;114;48.260;10.988;2024-01-30T06:23:30;-1.90;1.00
262;DHT22;114;48.260;10.988;2024-01-30T06:25:56;-1.70;1.00
262;DHT22;114;48.260;10.988;2024-01-30T06:28:24;-1.40;1.00
262;DHT22;114;48.260;10.988;2024-01-30T06:30:51;-1.60;1.00
262;DHT22;114;48.260;10.988;2024-01-30T06:33:29;-1.20;1.00
262;DHT22;114;48.260;10.988;2024-01-30T06:35:56;-1.30;1.00
262;DHT22;114;48.260;10.988;2024-01-30T06:38:23;-1.60;1.00
262;DHT22;114;48.260;10.988;2024-01-30T06:40:49;-1.80;1.00
262;DHT22;114;48.260;10.988;2024-01-30T06:43:15;-1.70;1.00
262;DHT22;114;48.260;10.988;2024-01-30T06:45:40;-2.30;1.00
262;DHT22;114;48.260;10.988;2024-01-30T06:48:08;-2.50;1.00
262;DHT22;114;48.260;10.988;2024-01-30T06:50:34;-2.00;1.00
262;DHT22;114;48.260;10.988;2024-01-30T06:52:59;-2.10;1.00
262;DHT22;114;48.260;10.988;2024-01-30T06:55:26;-2.50;1.00
262;DHT22;114;48.260;10.988;2024-01-30T06:57:52;-2.00;1.00
262;DHT22;114;48.260;10.988;2024-01-30T07:00:17;-2.00;1.00
262;DHT22;114;48.260;10.988;2024-01-30T07:02:47;-1.80;1.00
262;DHT22;114;48.260;10.988;2024-01-30T07:05:14;-1.90;1.00
262;DHT22;114;48.260;10.988;2024-01-30T07:07:41;-1.80;1.00
262;DHT22;114;48.260;10.988;2024-01-30T07:10:08;-1.80;1.00
262;DHT22;114;48.260;10.988;2024-01-30T07:12:34;-1.70;1.00
262;DHT22;114;48.260;10.988;2024-01-30T07:15:01;-1.60;1.00
262;DHT22;114;48.260;10.988;2024-01-30T07:17:28;-1.80;1.00
262;DHT22;114;48.260;10.988;2024-01-30T07:19:54;-1.80;1.00
262;DHT22;114;48.260;10.988;2024-01-30T07:22:19;-1.80;1.00
262;DHT22;114;48.260;10.988;2024-01-30T07:24:45;-1.70;1.00
262;DHT22;114;48.260;10.988;2024-01-30T07:27:14;-2.10;1.00
262;DHT22;114;48.260;10.988;2024-01-30T07:29:41;-1.60;1.00
262;DHT22;114;48.260;10.988;2024-01-30T07:32:07;-1.60;1.00
262;DHT22;114;48.260;10.988;2024-01-30T07:34:32;-1.30;1.00
262;DHT22;114;48.260;10.988;2024-01-30T07:36:59;-1.30;1.00
262;DHT22;114;48.260;10.988;2024-01-30T07:39:24;-1.60;1.00
262;DHT22;114;48.260;10.988;2024-01-30T07:41:50;-1.20;1.00
262;DHT22;114;48.260;10.988;2024-01-30T07:44:18;-1.00;1.00
262;DHT22;114;48.260;10.988;2024-01-30T07:46:43;-1.10;1.00
262;DHT22;114;48.260;10.988;2024-01-30T07:49:10;-1.00;1.00
262;DHT22;114;48.260;10.988;2024-01-30T07:51:36;-1.30;1.00
262;DHT22;114;48.260;10.988;2024-01-30T07:54:02;-0.70;1.00
262;DHT22;114;48.260;10.988;2024-01-30T07:56:29;-0.80;1.00
262;DHT22;114;48.260;10.988;2024-01-30T07:58:54;-1.10;1.00
262;DHT22;114;48.260;10.988;2024-01-30T08:01:23;-0.50;1.00
262;DHT22;114;48.260;10.988;2024-01-30T08:03:50;-0.40;1.00
262;DHT22;114;48.260;10.988;2024-01-30T08:06:16;-0.30;1.00
262;DHT22;114;48.260;10.988;2024-01-30T08:08:42;-0.20;1.00
262;DHT22;114;48.260;10.988;2024-01-30T08:11:09;0.00;1.00
262;DHT22;114;48.260;10.988;2024-01-30T08:13:35;0.10;1.00
262;DHT22;114;48.260;10.988;2024-01-30T08:16:02;0.30;1.00
262;DHT22;114;48.260;10.988;2024-01-30T08:18:28;0.50;1.00
262;DHT22;114;48.260;10.988;2024-01-30T08:20:53;0.60;1.00
262;DHT22;114;48.260;10.988;2024-01-30T08:23:19;0.70;1.00
262;DHT22;114;48.260;10.988;2024-01-30T08:25:45;0.80;1.00
262;DHT22;114;48.260;10.988;2024-01-30T08:28:11;0.90;1.00
262;DHT22;114;48.260;10.988;2024-01-30T08:30:36;1.00;1.00
262;DHT22;114;48.260;10.988;2024-01-30T08:33:04;1.10;1.00
262;DHT22;114;48.260;10.988;2024-01-30T08:35:31;1.30;1.00
262;DHT22;114;48.260;10.988;2024-01-30T08:37:59;1.40;1.00
262;DHT22;114;48.260;10.988;2024-01-30T08:40:24;1.60;1.00
262;DHT22;114;48.260;10.988;2024-01-30T08:42:50;1.70;1.00
262;DHT22;114;48.260;10.988;2024-01-30T08:45:16;1.90;1.00
262;DHT22;114;48.260;10.988;2024-01-30T08:47:42;2.00;1.00
262;DHT22;114;48.260;10.988;2024-01-30T08:50:09;2.30;1.00
262;DHT22;114;48.260;10.988;2024-01-30T08:52:34;2.40;1.00
262;DHT22;114;48.260;10.988;2024-01-30T08:55:00;2.60;1.00
262;DHT22;114;48.260;10.988;2024-01-30T08:57:26;2.80;1.00
262;DHT22;114;48.260;10.988;2024-01-30T08:59:56;3.00;1.00
262;DHT22;114;48.260;10.988;2024-01-30T09:02:22;3.10;1.00
262;DHT22;114;48.260;10.988;2024-01-30T09:04:48;3.30;1.00
262;DHT22;114;48.260;10.988;2024-01-30T09:10:44;3.70;1.00
262;DHT22;114;48.260;10.988;2024-01-30T09:13:10;3.90;1.00
262;DHT22;114;48.260;10.988;2024-01-30T09:15:37;3.90;1.00
262;DHT22;114;48.260;10.988;2024-01-30T09:18:03;4.10;1.00
262;DHT22;114;48.260;10.988;2024-01-30T09:20:28;4.20;1.00
262;DHT22;114;48.260;10.988;2024-01-30T09:22:55;4.40;1.00
262;DHT22;114;48.260;10.988;2024-01-30T09:25:21;4.40;1.00
262;DHT22;114;48.260;10.988;2024-01-30T09:27:47;4.40;1.00
262;DHT22;114;48.260;10.988;2024-01-30T09:30:13;4.70;1.00
262;DHT22;114;48.260;10.988;2024-01-30T09:32:40;4.70;1.00
262;DHT22;114;48.260;10.988;2024-01-30T09:35:06;5.00;1.00
262;DHT22;114;48.260;10.988;2024-01-30T09:37:32;5.00;1.00
262;DHT22;114;48.260;10.988;2024-01-30T09:39:59;5.10;1.00
262;DHT22;114;48.260;10.988;2024-01-30T09:42:34;5.30;1.00
262;DHT22;114;48.260;10.988;2024-01-30T09:45:07;5.50;1.00
262;DHT22;114;48.260;10.988;2024-01-30T09:47:44;5.70;1.00
262;DHT22;114;48.260;10.988;2024-01-30T09:50:17;5.80;1.00
262;DHT22;114;48.260;10.988;2024-01-30T09:52:44;6.00;1.00
262;DHT22;114;48.260;10.988;2024-01-30T09:55:10;6.10;1.00
262;DHT22;114;48.260;10.988;2024-01-30T09:57:39;6.40;1.00
262;DHT22;114;48.260;10.988;2024-01-30T10:00:05;6.60;1.00
262;DHT22;114;48.260;10.988;2024-01-30T10:02:35;6.80;1.00
262;DHT22;114;48.260;10.988;2024-01-30T10:05:01;7.00;1.00
262;DHT22;114;48.260;10.988;2024-01-30T10:07:27;7.20;1.00
262;DHT22;114;48.260;10.988;2024-01-30T10:09:57;7.50;1.00
262;DHT22;114;48.260;10.988;2024-01-30T10:12:26;7.90;1.00
262;DHT22;114;48.260;10.988;2024-01-30T10:14:52;8.20;1.00
262;DHT22;114;48.260;10.988;2024-01-30T10:17:20;8.40;1.00
262;DHT22;114;48.260;10.988;2024-01-30T10:19:47;8.80;1.00
262;DHT22;114;48.260;10.988;2024-01-30T10:22:12;9.20;1.00
262;DHT22;114;48.260;10.988;2024-01-30T10:24:38;9.50;1.00
262;DHT22;114;48.260;10.988;2024-01-30T10:27:05;9.60;1.00
262;DHT22;114;48.260;10.988;2024-01-30T10:29:31;9.60;1.00
262;DHT22;114;48.260;10.988;2024-01-30T10:32:04;9.70;1.00
262;DHT22;114;48.260;10.988;2024-01-30T10:34:30;9.60;1.00
262;DHT22;114;48.260;10.988;2024-01-30T10:37:16;9.60;1.00
262;DHT22;114;48.260;10.988;2024-01-30T10:39:44;9.70;1.00
262;DHT22;114;48.260;10.988;2024-01-30T10:42:15;9.90;1.00
262;DHT22;114;48.260;10.988;2024-01-30T10:44:56;10.20;1.00
262;DHT22;114;48.260;10.988;2024-01-30T10:47:27;10.40;1.00
262;DHT22;114;48.260;10.988;2024-01-30T10:49:58;10.40;1.00
262;DHT22;114;48.260;10.988;2024-01-30T10:52:26;10.30;1.00
262;DHT22;114;48.260;10.988;2024-01-30T10:54:54;10.30;1.00
262;DHT22;114;48.260;10.988;2024-01-30T10:57:23;10.20;1.00
262;DHT22;114;48.260;10.988;2024-01-30T10:59:49;10.20;1.00
262;DHT22;114;48.260;10.988;2024-01-30T11:02:18;10.20;1.00
262;DHT22;114;48.260;10.988;2024-01-30T11:04:45;10.30;1.00
262;DHT22;114;48.260;10.988;2024-01-30T11:07:18;10.30;1.00
262;DHT22;114;48.260;10.988;2024-01-30T11:09:51;10.50;1.00
262;DHT22;114;48.260;10.988;2024-01-30T11:12:18;10.60;1.00
262;DHT22;114;48.260;10.988;2024-01-30T11:14:46;10.60;1.00
262;DHT22;114;48.260;10.988;2024-01-30T11:17:12;10.60;1.00
262;DHT22;114;48.260;10.988;2024-01-30T11:19:38;10.60;1.00
262;DHT22;114;48.260;10.988;2024-01-30T11:22:06;10.70;1.00
262;DHT22;114;48.260;10.988;2024-01-30T11:24:42;10.80;1.00
262;DHT22;114;48.260;10.988;2024-01-30T11:27:12;10.90;1.00
262;DHT22;114;48.260;10.988;2024-01-30T11:29:40;11.00;1.00
262;DHT22;114;48.260;10.988;2024-01-30T11:32:06;11.10;1.00
262;DHT22;114;48.260;10.988;2024-01-30T11:34:33;11.10;1.00
262;DHT22;114;48.260;10.988;2024-01-30T11:37:04;11.30;1.00
262;DHT22;114;48.260;10.988;2024-01-30T11:39:36;11.30;1.00
262;DHT22;114;48.260;10.988;2024-01-30T11:42:03;11.50;1.00
262;DHT22;114;48.260;10.988;2024-01-30T11:44:31;11.90;1.00
262;DHT22;114;48.260;10.988;2024-01-30T11:46:56;12.30;1.00
262;DHT22;114;48.260;10.988;2024-01-30T11:49:23;12.90;1.00
262;DHT22;114;48.260;10.988;2024-01-30T11:51:49;13.30;1.00
262;DHT22;114;48.260;10.988;2024-01-30T11:54:18;13.20;1.00
262;DHT22;114;48.260;10.988;2024-01-30T11:56:45;13.10;1.00
262;DHT22;114;48.260;10.988;2024-01-30T11:59:11;13.10;1.00
262;DHT22;114;48.260;10.988;2024-01-30T12:01:37;12.90;1.00
262;DHT22;114;48.260;10.988;2024-01-30T12:04:03;12.70;1.00
262;DHT22;114;48.260;10.988;2024-01-30T12:06:33;12.70;1.00
262;DHT22;114;48.260;10.988;2024-01-30T12:09:01;12.60;1.00
262;DHT22;114;48.260;10.988;2024-01-30T12:11:29;12.40;1.00
262;DHT22;114;48.260;10.988;2024-01-30T12:13:55;12.30;1.00
262;DHT22;114;48.260;10.988;2024-01-30T12:16:23;12.20;1.00
262;DHT22;114;48.260;10.988;2024-01-30T12:18:49;12.10;1.00
262;DHT22;114;48.260;10.988;2024-01-30T12:21:17;12.10;1.00
262;DHT22;114;48.260;10.988;2024-01-30T12:23:44;12.30;1.00
262;DHT22;114;48.260;10.988;2024-01-30T12:26:10;12.40;1.00
262;DHT22;114;48.260;10.988;2024-01-30T12:28:46;12.70;1.00
262;DHT22;114;48.260;10.988;2024-01-30T12:31:12;12.70;1.00
262;DHT22;114;48.260;10.988;2024-01-30T12:33:39;12.80;1.00
262;DHT22;114;48.260;10.988;2024-01-30T12:36:05;13.10;1.00
262;DHT22;114;48.260;10.988;2024-01-30T12:38:32;13.20;1.00
262;DHT22;114;48.260;10.988;2024-01-30T12:40:58;13.50;1.00
262;DHT22;114;48.260;10.988;2024-01-30T12:43:25;13.40;1.00
262;DHT22;114;48.260;10.988;2024-01-30T12:45:53;14.00;1.00
262;DHT22;114;48.260;10.988;2024-01-30T12:48:20;14.60;1.00
262;DHT22;114;48.260;10.988;2024-01-30T12:50:45;14.60;1.00
262;DHT22;114;48.260;10.988;2024-01-30T12:53:13;14.80;1.00
262;DHT22;114;48.260;10.988;2024-01-30T12:55:39;14.90;1.00
262;DHT22;114;48.260;10.988;2024-01-30T12:58:04;14.90;1.00
262;DHT22;114;48.260;10.988;2024-01-30T13:00:33;14.80;1.00
262;DHT22;114;48.260;10.988;2024-01-30T13:03:00;14.60;1.00
262;DHT22;114;48.260;10.988;2024-01-30T13:05:25;14.10;1.00
262;DHT22;114;48.260;10.988;2024-01-30T13:07:52;13.80;1.00
262;DHT22;114;48.260;10.988;2024-01-30T13:10:19;13.60;1.00
262;DHT22;114;48.260;10.988;2024-01-30T13:12:44;13.60;1.00
262;DHT22;114;48.260;10.988;2024-01-30T13:15:10;13.90;1.00
262;DHT22;114;48.260;10.988;2024-01-30T13:17:37;14.00;1.00
262;DHT22;114;48.260;10.988;2024-01-30T13:20:02;14.10;1.00
262;DHT22;114;48.260;10.988;2024-01-30T13:22:30;14.10;1.00
262;DHT22;114;48.260;10.988;2024-01-30T13:24:56;13.90;1.00
262;DHT22;114;48.260;10.988;2024-01-30T13:27:21;13.80;1.00
262;DHT22;114;48.260;10.988;2024-01-30T13:29:48;13.70;1.00
262;DHT22;114;48.260;10.988;2024-01-30T13:32:15;13.50;1.00
262;DHT22;114;48.260;10.988;2024-01-30T13:34:42;13.50;1.00
262;DHT22;114;48.260;10.988;2024-01-30T13:37:09;13.40;1.00
262;DHT22;114;48.260;10.988;2024-01-30T13:39:35;13.20;1.00
262;DHT22;114;48.260;10.988;2024-01-30T13:42:00;13.00;1.00
262;DHT22;114;48.260;10.988;2024-01-30T13:44:26;12.80;1.00
262;DHT22;114;48.260;10.988;2024-01-30T13:46:52;12.70;1.00
262;DHT22;114;48.260;10.988;2024-01-30T13:49:32;12.70;1.00
262;DHT22;114;48.260;10.988;2024-01-30T13:51:58;12.90;1.00
262;DHT22;114;48.260;10.988;2024-01-30T13:54:24;12.80;1.00
262;DHT22;114;48.260;10.988;2024-01-30T13:56:50;12.70;1.00
262;DHT22;114;48.260;10.988;2024-01-30T13:59:16;12.60;1.00
262;DHT22;114;48.260;10.988;2024-01-30T14:01:48;12.50;1.00
262;DHT22;114;48.260;10.988;2024-01-30T14:04:14;12.50;1.00
262;DHT22;114;48.260;10.988;2024-01-30T14:06:44;12.50;1.00
262;DHT22;114;48.260;10.988;2024-01-30T14:09:11;12.50;1.00
262;DHT22;114;48.260;10.988;2024-01-30T14:11:38;12.50;1.00
262;DHT22;114;48.260;10.988;2024-01-30T14:14:03;12.50;1.00
262;DHT22;114;48.260;10.988;2024-01-30T14:16:30;12.40;1.00
262;DHT22;114;48.260;10.988;2024-01-30T14:18:55;12.40;1.00
262;DHT22;114;48.260;10.988;2024-01-30T14:21:21;12.50;1.00
262;DHT22;114;48.260;10.988;2024-01-30T14:23:48;12.50;1.00
262;DHT22;114;48.260;10.988;2024-01-30T14:26:14;12.60;1.00
262;DHT22;114;48.260;10.988;2024-01-30T14:28:40;12.60;1.00
262;DHT22;114;48.260;10.988;2024-01-30T14:31:07;12.60;1.00
262;DHT22;114;48.260;10.988;2024-01-30T14:33:32;12.60;1.00
262;DHT22;114;48.260;10.988;2024-01-30T14:35:58;12.60;1.00
262;DHT22;114;48.260;10.988;2024-01-30T14:38:24;12.60;1.00
262;DHT22;114;48.260;10.988;2024-01-30T14:40:50;12.60;1.00
262;DHT22;114;48.260;10.988;2024-01-30T14:43:17;12.50;1.00
262;DHT22;114;48.260;10.988;2024-01-30T14:45:43;12.40;1.00
262;DHT22;114;48.260;10.988;2024-01-30T14:48:11;12.40;1.00
262;DHT22;114;48.260;10.988;2024-01-30T14:50:38;12.30;1.00
262;DHT22;114;48.260;10.988;2024-01-30T14:53:03;12.20;1.00
262;DHT22;114;48.260;10.988;2024-01-30T14:55:30;12.10;1.00
262;DHT22;114;48.260;10.988;2024-01-30T14:57:56;12.00;1.00
262;DHT22;114;48.260;10.988;2024-01-30T15:00:22;11.90;1.00
262;DHT22;114;48.260;10.988;2024-01-30T15:02:48;11.90;1.00
262;DHT22;114;48.260;10.988;2024-01-30T15:05:14;11.80;1.00
262;DHT22;114;48.260;10.988;2024-01-30T15:07:40;11.70;1.00
262;DHT22;114;48.260;10.988;2024-01-30T15:10:07;11.60;1.00
262;DHT22;114;48.260;10.988;2024-01-30T15:12:33;11.50;1.00
262;DHT22;114;48.260;10.988;2024-01-30T15:14:59;11.40;1.00
262;DHT22;114;48.260;10.988;2024-01-30T15:17:27;11.30;1.00
262;DHT22;114;48.260;10.988;2024-01-30T15:19:53;11.10;1.00
262;DHT22;114;48.260;10.988;2024-01-30T15:22:18;11.10;1.00
262;DHT22;114;48.260;10.988;2024-01-30T15:24:51;11.10;1.00
262;DHT22;114;48.260;10.988;2024-01-30T15:27:17;11.00;1.00
262;DHT22;114;48.260;10.988;2024-01-30T15:29:45;10.90;1.00
262;DHT22;114;48.260;10.988;2024-01-30T15:32:15;10.80;1.00
262;DHT22;114;48.260;10.988;2024-01-30T15:34:40;10.80;1.00
262;DHT22;114;48.260;10.988;2024-01-30T15:37:07;10.70;1.00
262;DHT22;114;48.260;10.988;2024-01-30T15:39:32;10.80;1.00
262;DHT22;114;48.260;10.988;2024-01-30T15:41:59;10.40;1.00
262;DHT22;114;48.260;10.988;2024-01-30T15:44:26;10.30;1.00
262;DHT22;114;48.260;10.988;2024-01-30T15:46:52;10.20;1.00
262;DHT22;114;48.260;10.988;2024-01-30T15:49:18;10.10;1.00
262;DHT22;114;48.260;10.988;2024-01-30T15:51:43;10.00;1.00
262;DHT22;114;48.260;10.988;2024-01-30T15:54:09;9.80;1.00
262;DHT22;114;48.260;10.988;2024-01-30T15:56:35;9.80;1.00
262;DHT22;114;48.260;10.988;2024-01-30T15:59:00;9.60;1.00
262;DHT22;114;48.260;10.988;2024-01-30T16:01:28;9.60;1.00
262;DHT22;114;48.260;10.988;2024-01-30T16:04:04;9.40;1.00
262;DHT22;114;48.260;10.988;2024-01-30T16:06:31;9.30;1.00
262;DHT22;114;48.260;10.988;2024-01-30T16:08:59;9.10;1.00
262;DHT22;114;48.260;10.988;2024-01-30T16:11:26;9.00;1.00
262;DHT22;114;48.260;10.988;2024-01-30T16:13:53;8.80;1.00
262;DHT22;114;48.260;10.988;2024-01-30T16:16:19;8.70;1.00
262;DHT22;114;48.260;10.988;2024-01-30T16:18:46;8.50;1.00
262;DHT22;114;48.260;10.988;2024-01-30T16:21:12;8.40;1.00
262;DHT22;114;48.260;10.988;2024-01-30T16:23:40;7.90;1.00
262;DHT22;114;48.260;10.988;2024-01-30T16:26:06;7.70;1.00
262;DHT22;114;48.260;10.988;2024-01-30T16:28:33;7.60;1.00
262;DHT22;114;48.260;10.988;2024-01-30T16:31:02;7.40;1.00
262;DHT22;114;48.260;10.988;2024-01-30T16:33:31;7.10;1.00
262;DHT22;114;48.260;10.988;2024-01-30T16:35:57;7.00;1.00